Time;durP1;ratioP1;P1;durP2;ratioP2;P2;SDS_P1;SDS_P2;PMS_P1;PMS_P2;Temp;Humidity;BMP_temperature;BMP_pressure;BME280_temperature;BME280_humidity;BME280_pressure;Samples;Min_cycle;Max_cycle;Signal;HPM_P1;HPM_P2
2021/12/08 00:04:00;;;;;;;31.1;54;;;;;;;-1.5;83.5;98410;;;;
2021/12/08 00:15:00;;;;;;;31.1;54;;;;;;;-1.5;83.2;98420;;;;
2021/12/08 00:26:00;;;;;;;36.8;52.6;;;;;;;-1.3;82.8;98430;;;;
2021/12/08 00:36:01;;;;;;;36.8;52.6;;;;;;;-1.3;82.3;98440;;;;
2021/12/08 00:46:01;;;;;;;36.8;52.6;;;;;;;-1.4;81.4;98430;;;;
2021/12/08 00:56:00;;;;;;;26.5;41.5;;;;;;;-1.4;81.6;98430;;;;
2021/12/08 01:06:00;;;;;;;26.5;41.5;;;;;;;-1.2;80.8;98430;;;;
2021/12/08 01:16:00;;;;;;;26.5;41.5;;;;;;;-1.4;81.1;98420;;;;
2021/12/08 01:26:00;;;;;;;21.6;34;;;;;;;-1.3;80.7;98420;;;;
2021/12/08 01:37:00;;;;;;;21.6;34;;;;;;;-1.4;80.9;98430;;;;
2021/12/08 01:47:00;;;;;;;21.6;34;;;;;;;-1.5;81.2;98430;;;;
2021/12/08 01:58:00;;;;;;;20.2;36.4;;;;;;;-1.3;81;98410;;;;
2021/12/08 02:09:00;;;;;;;20.2;36.4;;;;;;;-1.3;81.6;98400;;;;
2021/12/08 02:20:00;;;;;;;20.2;36.4;;;;;;;-1.3;81.1;98380;;;;
2021/12/08 02:31:04;;;;;;;24.1;36.3;;;;;;;-1.2;81.3;98360;;;;
2021/12/08 02:52:00;;;;;;;25.2;48.4;;;;;;;-1.7;82.7;98370;;;;
2021/12/08 03:02:00;;;;;;;25.2;48.4;;;;;;;-1.7;82.9;98350;;;;
2021/12/08 03:13:00;;;;;;;25.2;48.4;;;;;;;-1.9;83.2;98330;;;;
2021/12/08 03:24:15;;;;;;;25;42.2;;;;;;;-2;83.4;98330;;;;
2021/12/08 03:34:00;;;;;;;25;42.2;;;;;;;-2;83.3;98330;;;;
2021/12/08 03:45:02;;;;;;;25;42.2;;;;;;;-1.9;83.2;98330;;;;
2021/12/08 03:56:00;;;;;;;22.3;39.5;;;;;;;-1.9;83;98320;;;;
2021/12/08 04:06:03;;;;;;;22.3;39.5;;;;;;;-1.9;82.8;98300;;;;
2021/12/08 04:17:00;;;;;;;22.3;39.5;;;;;;;-1.9;82.8;98270;;;;
2021/12/08 04:28:00;;;;;;;22.9;43.9;;;;;;;-1.9;82.4;98270;;;;
2021/12/08 04:38:01;;;;;;;22.9;43.9;;;;;;;-1.9;82;98280;;;;
2021/12/08 04:48:15;;;;;;;22.9;43.9;;;;;;;-1.9;81.8;98290;;;;
2021/12/08 05:10:00;;;;;;;21.1;44;;;;;;;-2;81.7;98320;;;;
2021/12/08 05:21:03;;;;;;;22.6;43.3;;;;;;;-2.1;81.9;98320;;;;
2021/12/08 05:32:02;;;;;;;22.6;43.3;;;;;;;-2.1;81.6;98310;;;;
2021/12/08 05:43:00;;;;;;;22.6;43.3;;;;;;;-2;81.5;98300;;;;
2021/12/08 05:53:00;;;;;;;20.7;34.7;;;;;;;-2.2;81.6;98280;;;;
2021/12/08 06:03:00;;;;;;;20.7;34.7;;;;;;;-2.2;81.7;98280;;;;
2021/12/08 06:13:00;;;;;;;20.7;34.7;;;;;;;-2.2;81.1;98280;;;;
2021/12/08 06:24:00;;;;;;;20.5;34.8;;;;;;;-2.1;80.8;98280;;;;
2021/12/08 06:34:00;;;;;;;20.5;34.8;;;;;;;-2.3;81;98260;;;;
2021/12/08 06:45:00;;;;;;;20.5;34.8;;;;;;;-2.3;80.5;98260;;;;
2021/12/08 06:56:00;;;;;;;17.6;25;;;;;;;-2.2;80.2;98250;;;;
2021/12/08 07:06:08;;;;;;;17.6;25;;;;;;;-2.3;80.2;98250;;;;
2021/12/08 07:17:02;;;;;;;17.6;25;;;;;;;-2.1;79.6;98250;;;;
2021/12/08 07:28:00;;;;;;;13.8;23;;;;;;;-1.9;78.4;98250;;;;
2021/12/08 07:38:00;;;;;;;13.8;23;;;;;;;-2;78.2;98230;;;;
2021/12/08 07:49:00;;;;;;;13.8;23;;;;;;;-1.9;78.4;98230;;;;
2021/12/08 08:00:00;;;;;;;14.3;21.3;;;;;;;-1.8;78.1;98250;;;;
2021/12/08 08:10:02;;;;;;;14.3;21.3;;;;;;;-1.7;78.1;98260;;;;
2021/12/08 08:21:00;;;;;;;16.8;29.5;;;;;;;-1.9;78.1;98260;;;;
2021/12/08 08:31:02;;;;;;;16.8;29.5;;;;;;;-1.8;77.5;98270;;;;
2021/12/08 08:41:00;;;;;;;16.8;29.5;;;;;;;-1.6;77.4;98280;;;;
2021/12/08 08:52:01;;;;;;;19.2;28.2;;;;;;;-1.7;76.8;98280;;;;
2021/12/08 09:02:03;;;;;;;19.2;28.2;;;;;;;-1.7;76.9;98270;;;;
2021/12/08 09:12:00;;;;;;;19.2;28.2;;;;;;;-1.6;77.2;98270;;;;
2021/12/08 09:23:00;;;;;;;17.7;28.5;;;;;;;-1.8;77.5;98250;;;;
2021/12/08 09:33:01;;;;;;;17.7;28.5;;;;;;;-1.9;77.3;98250;;;;
2021/12/08 09:43:01;;;;;;;17.7;28.5;;;;;;;-1.7;77.4;98230;;;;
2021/12/08 09:53:00;;;;;;;16.6;26.2;;;;;;;-1.6;77.4;98240;;;;
2021/12/08 10:04:01;;;;;;;16.6;26.2;;;;;;;-1.3;76.7;98230;;;;
2021/12/08 10:15:00;;;;;;;16.6;26.2;;;;;;;-1.5;76.8;98230;;;;
2021/12/08 10:26:00;;;;;;;14.9;23.6;;;;;;;-1.3;76.3;98210;;;;
2021/12/08 10:36:05;;;;;;;14.9;23.6;;;;;;;-1.6;76.8;98210;;;;
2021/12/08 10:47:02;;;;;;;14.9;23.6;;;;;;;-1.5;76.9;98200;;;;
2021/12/08 10:58:00;;;;;;;15.4;23.9;;;;;;;-1.3;76.8;98170;;;;
2021/12/08 11:09:00;;;;;;;15.4;23.9;;;;;;;-1.4;77.1;98170;;;;
2021/12/08 11:19:00;;;;;;;17.9;28;;;;;;;-1.3;76.6;98150;;;;
2021/12/08 11:30:00;;;;;;;17.9;28;;;;;;;-1.5;76.9;98150;;;;
2021/12/08 11:41:00;;;;;;;17.9;28;;;;;;;-1.3;77.1;98140;;;;
2021/12/08 11:51:00;;;;;;;17.5;24.8;;;;;;;-1.4;77.2;98140;;;;
2021/12/08 12:01:02;;;;;;;17.5;24.8;;;;;;;-1.6;77.2;98140;;;;
2021/12/08 12:11:02;;;;;;;17.5;24.8;;;;;;;-1.5;77.4;98130;;;;
2021/12/08 12:21:00;;;;;;;22.5;34.9;;;;;;;-1.4;77.4;98120;;;;
2021/12/08 12:31:00;;;;;;;22.5;34.9;;;;;;;-1.4;77.1;98110;;;;
2021/12/08 12:41:01;;;;;;;22.5;34.9;;;;;;;-1.8;77.8;98110;;;;
2021/12/08 12:51:01;;;;;;;19.1;27.7;;;;;;;-1.6;77.1;98120;;;;
2021/12/08 13:02:00;;;;;;;19.1;27.7;;;;;;;-1.5;76.8;98110;;;;
2021/12/08 13:13:00;;;;;;;19.1;27.7;;;;;;;-1.6;77.1;98090;;;;
2021/12/08 13:23:02;;;;;;;15.4;20.3;;;;;;;-1.7;77.1;98090;;;;
2021/12/08 13:34:02;;;;;;;15.4;20.3;;;;;;;-1.7;77.1;98080;;;;
2021/12/08 13:44:02;;;;;;;15.4;20.3;;;;;;;-1.7;77.1;98100;;;;
2021/12/08 13:55:00;;;;;;;11.7;16.1;;;;;;;-1.9;78.3;98110;;;;
2021/12/08 14:05:00;;;;;;;11.7;16.1;;;;;;;-1.9;78;98120;;;;
2021/12/08 14:15:00;;;;;;;11.7;16.1;;;;;;;-1.9;78;98130;;;;
2021/12/08 14:26:00;;;;;;;12.6;17.8;;;;;;;-2.1;78.6;98130;;;;
2021/12/08 14:36:00;;;;;;;12.6;17.8;;;;;;;-2.1;78.8;98110;;;;
2021/12/08 14:47:01;;;;;;;12.6;17.8;;;;;;;-2;78.4;98100;;;;
2021/12/08 14:57:00;;;;;;;11.5;17.8;;;;;;;-2.3;79.4;98100;;;;
2021/12/08 15:07:01;;;;;;;11.5;17.8;;;;;;;-2.3;79.4;98100;;;;
2021/12/08 15:18:01;;;;;;;11.6;19.4;;;;;;;-2.2;79.6;98090;;;;
2021/12/08 15:28:01;;;;;;;11.6;19.4;;;;;;;-2.4;79.5;98090;;;;
2021/12/08 15:38:00;;;;;;;11.6;19.4;;;;;;;-2.3;79.3;98100;;;;
2021/12/08 15:49:02;;;;;;;12.8;21.9;;;;;;;-2.2;79.4;98100;;;;
2021/12/08 15:59:04;;;;;;;12.8;21.9;;;;;;;-2.3;79.7;98090;;;;
2021/12/08 16:10:00;;;;;;;12.8;21.9;;;;;;;-2.4;79.6;98090;;;;
2021/12/08 16:20:00;;;;;;;14.8;23;;;;;;;-2.6;79.7;98100;;;;
2021/12/08 16:31:00;;;;;;;14.8;23;;;;;;;-2.5;79.5;98100;;;;
2021/12/08 16:51:01;;;;;;;15.3;22.8;;;;;;;-2.4;79.3;98090;;;;
2021/12/08 17:02:01;;;;;;;15.3;22.8;;;;;;;-2.7;79.6;98090;;;;
2021/12/08 17:12:01;;;;;;;15.3;22.8;;;;;;;-2.7;79.5;98100;;;;
2021/12/08 17:23:01;;;;;;;14.5;24.4;;;;;;;-2.6;79.4;98090;;;;
2021/12/08 17:33:01;;;;;;;14.5;24.4;;;;;;;-2.6;79.4;98090;;;;
2021/12/08 17:43:01;;;;;;;14.5;24.4;;;;;;;-2.6;78.9;98080;;;;
2021/12/08 17:54:02;;;;;;;16.5;30.6;;;;;;;-2.5;78.7;98090;;;;
2021/12/08 18:05:01;;;;;;;16.5;30.6;;;;;;;-2.6;78.5;98090;;;;
2021/12/08 18:16:01;;;;;;;16.5;30.6;;;;;;;-2.6;79;98080;;;;
2021/12/08 18:27:01;;;;;;;14.4;21.8;;;;;;;-2.7;79.3;98060;;;;
2021/12/08 18:37:03;;;;;;;14.4;21.8;;;;;;;-2.7;79.4;98050;;;;
2021/12/08 18:48:01;;;;;;;16.9;26.9;;;;;;;-2.7;79.7;98050;;;;
2021/12/08 18:59:01;;;;;;;16.9;26.9;;;;;;;-2.8;79.9;98040;;;;
2021/12/08 19:09:01;;;;;;;16.9;26.9;;;;;;;-3;80.5;98040;;;;
2021/12/08 19:19:01;;;;;;;17.8;26.9;;;;;;;-2.8;80;98030;;;;
2021/12/08 19:30:01;;;;;;;17.8;26.9;;;;;;;-2.8;79.9;98030;;;;
2021/12/08 19:41:01;;;;;;;17.8;26.9;;;;;;;-2.9;80.3;98030;;;;
2021/12/08 19:52:01;;;;;;;16;25.9;;;;;;;-2.9;80.2;98030;;;;
2021/12/08 20:02:01;;;;;;;16;25.9;;;;;;;-2.9;80.3;98020;;;;
2021/12/08 20:12:02;;;;;;;16;25.9;;;;;;;-2.9;80.4;98020;;;;
2021/12/08 20:23:01;;;;;;;18.5;30.9;;;;;;;-2.9;80.5;98010;;;;
2021/12/08 20:34:01;;;;;;;18.5;30.9;;;;;;;-2.8;80.4;98010;;;;
2021/12/08 20:44:02;;;;;;;18.5;30.9;;;;;;;-2.8;80.2;98000;;;;
2021/12/08 20:55:01;;;;;;;18.1;27.2;;;;;;;-2.7;80.3;98000;;;;
2021/12/08 21:05:01;;;;;;;18.1;27.2;;;;;;;-2.8;80.5;98000;;;;
2021/12/08 21:15:07;;;;;;;18.1;27.2;;;;;;;-2.7;80.3;98000;;;;
2021/12/08 21:26:01;;;;;;;17.5;27.5;;;;;;;-2.7;80.6;97980;;;;
2021/12/08 21:36:01;;;;;;;17.5;27.5;;;;;;;-2.6;80.1;97980;;;;
2021/12/08 21:47:01;;;;;;;17.5;29.1;;;;;;;-2.6;80.1;97970;;;;
2021/12/08 21:58:01;;;;;;;17.5;29.1;;;;;;;-2.8;80.8;97960;;;;
2021/12/08 22:09:01;;;;;;;17.5;29.1;;;;;;;-2.8;80.7;97960;;;;
2021/12/08 22:19:01;;;;;;;17;26.3;;;;;;;-2.7;80.5;97960;;;;
2021/12/08 22:30:01;;;;;;;17;26.3;;;;;;;-2.7;80.8;97950;;;;
2021/12/08 22:41:01;;;;;;;17;26.3;;;;;;;-2.6;80.3;97960;;;;
2021/12/08 22:52:01;;;;;;;19.6;34.6;;;;;;;-2.6;80.3;97950;;;;
2021/12/08 23:03:01;;;;;;;19.6;34.6;;;;;;;-2.6;80.3;97970;;;;
2021/12/08 23:14:02;;;;;;;19.6;34.6;;;;;;;-2.7;80.4;97980;;;;
2021/12/08 23:24:01;;;;;;;20.5;30.9;;;;;;;-2.6;80.1;97980;;;;
2021/12/08 23:35:11;;;;;;;20.5;30.9;;;;;;;-2.6;80.3;97970;;;;
2021/12/08 23:45:01;;;;;;;20.5;30.9;;;;;;;-2.6;80;97950;;;;
2021/12/08 23:55:01;;;;;;;17.6;30.2;;;;;;;-2.6;80.1;97960;;;;
